Atlantis — PCDT — position and weather

sailwx.info

Track history (hours):
 
Tides and Currents Weather Stations Pressure Air Temp Water Temp Dewpoint Dewpoint Depression Visibility Wind Speed Wind Dir Waves Ship Positions

Atlantis (Netherlands)

Ship's website: http://www.tallship-company.com/artemis/gb_atlantis.htm

Last reported at 2020-Sep-26 07:59 UTC. Time now 2020-Sep-26 09:22 UTC.
Position N 53°31' E 008°08'.

Length 40 m; draft 4.5 m.

Type: Pleasure craft. MMSI: 246253000.

Date/timePositionNaut miles runAvg speedWind from/ knotsBaromVisibWave heightAir tempDewpointWater temp
2020-Sep-26 07:59N 53°31' E 008°08'0 0.0
2020-Sep-26 07:29N 53°31' E 008°08'0 0.0
2020-Sep-26 06:59N 53°31' E 008°08'0 0.0
2020-Sep-26 05:26N 53°31' E 008°08'0 0.0
2020-Sep-26 00:26N 53°31' E 008°08'0 0.0
2020-Sep-25 23:29N 53°31' E 008°08'0 0.0
2020-Sep-25 20:29N 53°31' E 008°08'0 0.0
2020-Sep-25 19:20N 53°31' E 008°08'0 0.0
2020-Sep-25 08:26N 53°31' E 008°08'0 0.0
2020-Sep-25 00:29N 53°31' E 008°08'0 0.0
2020-Sep-24 16:56N 53°31' E 008°08'0 0.0
2020-Sep-24 15:59N 53°31' E 008°08'0 0.0
2020-Sep-24 15:29N 53°31' E 008°08'0 0.0
2020-Sep-24 13:32N 53°31' E 008°08'0 0.0
2020-Sep-24 07:26N 53°31' E 008°08'0 0.0
2020-Sep-24 06:29N 53°31' E 008°08'0 0.0
2020-Sep-24 05:26N 53°31' E 008°08'0 0.0
2020-Sep-24 02:56N 53°31' E 008°08'0 0.0
2020-Sep-24 01:56N 53°31' E 008°08'0 0.0
2020-Sep-23 21:29N 53°31' E 008°08'0 0.0
2020-Sep-23 19:47N 53°31' E 008°08'0 0.0
2020-Sep-23 19:20N 53°31' E 008°08'0 0.0
2020-Sep-23 18:59N 53°31' E 008°08'0 0.0
2020-Sep-23 11:32N 53°31' E 008°08'0 0.0
2020-Sep-22 09:08N 53°31' E 008°08'0 0.0
2020-Sep-22 07:53N 53°31' E 008°08'0 0.0
2020-Sep-22 07:14N 53°31' E 008°08'0 0.0
2020-Sep-22 06:53N 53°31' E 008°08'0 0.0
2020-Sep-22 04:50N 53°31' E 008°08'0 0.0
2020-Sep-21 22:53N 53°31' E 008°08'0 0.0
2020-Sep-21 21:20N 53°31' E 008°08'0 0.0
2020-Sep-21 20:20N 53°31' E 008°08'0 0.0
2020-Sep-21 17:26N 53°31' E 008°08'0 0.0
2020-Sep-21 15:59N 53°31' E 008°08'0 0.0
2020-Sep-21 13:56N 53°31' E 008°08'0 0.0
2020-Sep-21 10:23N 53°31' E 008°08'0 0.0
2020-Sep-21 08:08N 53°31' E 008°08'0 0.0
2020-Sep-21 07:20N 53°31' E 008°08'0 0.0
2020-Sep-21 05:29N 53°31' E 008°08'0 0.0
2020-Sep-20 17:17N 53°31' E 008°08'0 0.0
2020-Sep-20 16:23N 53°31' E 008°08'0 0.0
2020-Sep-20 15:59N 53°31' E 008°08'0 0.0
2020-Sep-20 11:53N 53°31' E 008°08'0 0.0
2020-Sep-20 11:11N 53°31' E 008°08'0 0.0
2020-Sep-20 10:29N 53°31' E 008°08'0 0.0
2020-Sep-20 08:26N 53°31' E 008°08'0 0.0
2020-Sep-20 06:59N 53°31' E 008°08'0 0.0
2020-Sep-20 05:56N 53°31' E 008°08'0 0.0
2020-Sep-19 23:38N 53°31' E 008°08'0 0.0
2020-Sep-19 20:23N 53°31' E 008°08'0 0.0
2020-Sep-19 18:59N 53°31' E 008°08'0 0.0
2020-Sep-19 17:29N 53°31' E 008°08'0 0.0
2020-Sep-19 16:26N 53°31' E 008°08'1 0.6
2020-Sep-19 13:57N 53°32' E 008°10'4 1.3
2020-Sep-19 11:00N 53°36' E 008°10'2 1.7
2020-Sep-19 09:58N 53°34' E 008°10'3 1.3
2020-Sep-19 07:18N 53°31' E 008°08'0 0.0
2020-Sep-19 06:48N 53°31' E 008°08'0 0.0
2020-Sep-19 04:48N 53°31' E 008°08'0 0.0
2020-Sep-19 04:30N 53°31' E 008°08'0 0.0
2020-Sep-19 02:24N 53°31' E 008°08'0 0.0
2020-Sep-19 01:30N 53°31' E 008°08'0 0.0
2020-Sep-18 23:24N 53°31' E 008°08'0 0.0
2020-Sep-18 22:30N 53°31' E 008°08'0 0.0
2020-Sep-18 20:00N 53°31' E 008°08'1 1.4
2020-Sep-18 19:00N 53°32' E 008°10'4 3.9
2020-Sep-18 18:00N 53°36' E 008°10'5 0.5
2020-Sep-18 07:25N 53°31' E 008°08'0 0.0
2020-Sep-18 06:58N 53°31' E 008°08'0 0.0
2020-Sep-18 04:52N 53°31' E 008°08'0 0.0
2020-Sep-17 16:58N 53°31' E 008°08'0 0.0
2020-Sep-17 15:19N 53°31' E 008°08'0 0.0
2020-Sep-17 14:13N 53°31' E 008°08'0 0.0
2020-Sep-17 06:55N 53°31' E 008°08'0 0.0
2020-Sep-16 11:49N 53°31' E 008°08'  
Track history (hours):
 
Tides and Currents Weather Stations Pressure Air Temp Water Temp Dewpoint Dewpoint Depression Visibility Wind Speed Wind Dir Waves Ship Positions

Atlantis (Netherlands)

Ship's website: http://www.tallship-company.com/artemis/gb_atlantis.htm

Last reported at 2020-Sep-26 07:59 UTC. Time now 2020-Sep-26 09:22 UTC.
Position N 53°31' E 008°08'.

Length 40 m; draft 4.5 m.

Type: Pleasure craft. MMSI: 246253000.

Date/timePositionNaut miles runAvg speedWind from/ knotsBaromVisibWave heightAir tempDewpointWater temp
2020-Sep-26 07:59N 53°31' E 008°08'0 0.0
2020-Sep-26 07:29N 53°31' E 008°08'0 0.0
2020-Sep-26 06:59N 53°31' E 008°08'0 0.0
2020-Sep-26 05:26N 53°31' E 008°08'0 0.0
2020-Sep-26 00:26N 53°31' E 008°08'0 0.0
2020-Sep-25 23:29N 53°31' E 008°08'0 0.0
2020-Sep-25 20:29N 53°31' E 008°08'0 0.0
2020-Sep-25 19:20N 53°31' E 008°08'0 0.0
2020-Sep-25 08:26N 53°31' E 008°08'0 0.0
2020-Sep-25 00:29N 53°31' E 008°08'0 0.0
2020-Sep-24 16:56N 53°31' E 008°08'0 0.0
2020-Sep-24 15:59N 53°31' E 008°08'0 0.0
2020-Sep-24 15:29N 53°31' E 008°08'0 0.0
2020-Sep-24 13:32N 53°31' E 008°08'0 0.0
2020-Sep-24 07:26N 53°31' E 008°08'0 0.0
2020-Sep-24 06:29N 53°31' E 008°08'0 0.0
2020-Sep-24 05:26N 53°31' E 008°08'0 0.0
2020-Sep-24 02:56N 53°31' E 008°08'0 0.0
2020-Sep-24 01:56N 53°31' E 008°08'0 0.0
2020-Sep-23 21:29N 53°31' E 008°08'0 0.0
2020-Sep-23 19:47N 53°31' E 008°08'0 0.0
2020-Sep-23 19:20N 53°31' E 008°08'0 0.0
2020-Sep-23 18:59N 53°31' E 008°08'0 0.0
2020-Sep-23 11:32N 53°31' E 008°08'0 0.0
2020-Sep-22 09:08N 53°31' E 008°08'0 0.0
2020-Sep-22 07:53N 53°31' E 008°08'0 0.0
2020-Sep-22 07:14N 53°31' E 008°08'0 0.0
2020-Sep-22 06:53N 53°31' E 008°08'0 0.0
2020-Sep-22 04:50N 53°31' E 008°08'0 0.0
2020-Sep-21 22:53N 53°31' E 008°08'0 0.0
2020-Sep-21 21:20N 53°31' E 008°08'0 0.0
2020-Sep-21 20:20N 53°31' E 008°08'0 0.0
2020-Sep-21 17:26N 53°31' E 008°08'0 0.0
2020-Sep-21 15:59N 53°31' E 008°08'0 0.0
2020-Sep-21 13:56N 53°31' E 008°08'0 0.0
2020-Sep-21 10:23N 53°31' E 008°08'0 0.0
2020-Sep-21 08:08N 53°31' E 008°08'0 0.0
2020-Sep-21 07:20N 53°31' E 008°08'0 0.0
2020-Sep-21 05:29N 53°31' E 008°08'0 0.0
2020-Sep-20 17:17N 53°31' E 008°08'0 0.0
2020-Sep-20 16:23N 53°31' E 008°08'0 0.0
2020-Sep-20 15:59N 53°31' E 008°08'0 0.0
2020-Sep-20 11:53N 53°31' E 008°08'0 0.0
2020-Sep-20 11:11N 53°31' E 008°08'0 0.0
2020-Sep-20 10:29N 53°31' E 008°08'0 0.0
2020-Sep-20 08:26N 53°31' E 008°08'0 0.0
2020-Sep-20 06:59N 53°31' E 008°08'0 0.0
2020-Sep-20 05:56N 53°31' E 008°08'0 0.0
2020-Sep-19 23:38N 53°31' E 008°08'0 0.0
2020-Sep-19 20:23N 53°31' E 008°08'0 0.0
2020-Sep-19 18:59N 53°31' E 008°08'0 0.0
2020-Sep-19 17:29N 53°31' E 008°08'0 0.0
2020-Sep-19 16:26N 53°31' E 008°08'1 0.6
2020-Sep-19 13:57N 53°32' E 008°10'4 1.3
2020-Sep-19 11:00N 53°36' E 008°10'2 1.7
2020-Sep-19 09:58N 53°34' E 008°10'3 1.3
2020-Sep-19 07:18N 53°31' E 008°08'0 0.0
2020-Sep-19 06:48N 53°31' E 008°08'0 0.0
2020-Sep-19 04:48N 53°31' E 008°08'0 0.0
2020-Sep-19 04:30N 53°31' E 008°08'0 0.0
2020-Sep-19 02:24N 53°31' E 008°08'0 0.0
2020-Sep-19 01:30N 53°31' E 008°08'0 0.0
2020-Sep-18 23:24N 53°31' E 008°08'0 0.0
2020-Sep-18 22:30N 53°31' E 008°08'0 0.0
2020-Sep-18 20:00N 53°31' E 008°08'1 1.4
2020-Sep-18 19:00N 53°32' E 008°10'4 3.9
2020-Sep-18 18:00N 53°36' E 008°10'5 0.5
2020-Sep-18 07:25N 53°31' E 008°08'0 0.0
2020-Sep-18 06:58N 53°31' E 008°08'0 0.0
2020-Sep-18 04:52N 53°31' E 008°08'0 0.0
2020-Sep-17 16:58N 53°31' E 008°08'0 0.0
2020-Sep-17 15:19N 53°31' E 008°08'0 0.0
2020-Sep-17 14:13N 53°31' E 008°08'0 0.0
2020-Sep-17 06:55N 53°31' E 008°08'0 0.0
2020-Sep-16 11:49N 53°31' E 008°08'  

Dump ship's entire track history